Time;durP1;ratioP1;P1;durP2;ratioP2;P2;SDS_P1;SDS_P2;PMS_P1;PMS_P2;Temp;Humidity;BMP_temperature;BMP_pressure;BME280_temperature;BME280_humidity;BME280_pressure;Samples;Min_cycle;Max_cycle;Signal;HPM_P1;HPM_P2
2024/01/13 00:00:04;;;;;;;;;;;-3.10;99.90;;;;;;5105220;28;19920;-89
2024/01/13 00:02:32;;;;;;;;;;;-3.20;99.90;;;;;;5095087;28;19924;-90
2024/01/13 00:04:59;;;;;;;;;;;-3.10;99.90;;;;;;5102090;28;19920;-90
2024/01/13 00:07:26;;;;;;;;;;;-3.20;99.90;;;;;;5096930;28;20179;-88
2024/01/13 00:09:52;;;;;;;;;;;-3.20;99.90;;;;;;5103941;28;19955;-91
2024/01/13 00:12:19;;;;;;;;;;;-3.10;99.90;;;;;;5110224;28;19920;-88
2024/01/13 00:14:46;;;;;;;;;;;-3.10;99.90;;;;;;5095008;28;19932;-89
2024/01/13 00:17:13;;;;;;;;;;;-3.10;99.90;;;;;;5104231;28;19988;-89
2024/01/13 00:19:41;;;;;;;;;;;-3.10;99.90;;;;;;5107525;28;19928;-89
2024/01/13 00:22:08;;;;;;;;;;;-3.10;99.90;;;;;;5096576;28;19927;-89
2024/01/13 00:24:34;;;;;;;;;;;-3.20;99.90;;;;;;5105028;28;19942;-89
2024/01/13 00:27:01;;;;;;;;;;;-3.20;99.90;;;;;;5105469;28;19958;-91
2024/01/13 00:29:28;;;;;;;;;;;-3.20;99.90;;;;;;5104960;28;19951;-90
2024/01/13 00:31:54;;;;;;;;;;;-3.20;99.90;;;;;;5106567;28;19920;-89
2024/01/13 00:34:21;;;;;;;;;;;-3.20;99.90;;;;;;5109213;28;19920;-90
2024/01/13 00:36:49;;;;;;;;;;;-3.20;99.90;;;;;;5098169;28;19920;-89
2024/01/13 00:39:16;;;;;;;;;;;-3.10;99.90;;;;;;5100241;28;19943;-90
2024/01/13 00:41:42;;;;;;;;;;;-3.10;99.90;;;;;;5101200;28;19939;-89
2024/01/13 00:44:09;;;;;;;;;;;-3.10;99.90;;;;;;5101473;28;19980;-89
2024/01/13 00:46:36;;;;;;;;;;;-3.10;99.90;;;;;;5103468;28;19928;-89
2024/01/13 00:49:03;;;;;;;;;;;-3.10;99.90;;;;;;5103030;28;19920;-89
2024/01/13 00:51:30;;;;;;;;;;;-3.10;99.90;;;;;;5099334;28;19988;-89
2024/01/13 00:53:58;;;;;;;;;;;-3.00;99.90;;;;;;5094445;28;19970;-88
2024/01/13 00:56:25;;;;;;;;;;;-3.00;99.90;;;;;;5101951;28;19920;-89
2024/01/13 00:58:52;;;;;;;;;;;-3.00;99.90;;;;;;5095869;28;19983;-89
2024/01/13 01:01:18;;;;;;;;;;;-3.00;99.90;;;;;;5100962;28;19927;-89
2024/01/13 01:03:45;;;;;;;;;;;-3.00;99.90;;;;;;5106471;28;19955;-89
2024/01/13 01:06:12;;;;;;;;;;;-3.00;99.90;;;;;;5106113;28;20099;-91
2024/01/13 01:08:39;;;;;;;;;;;-3.00;99.90;;;;;;5106251;28;19944;-89
2024/01/13 01:11:07;;;;;;;;;;;-3.00;99.90;;;;;;5106000;28;19987;-89
2024/01/13 01:13:34;;;;;;;;;;;-2.90;99.90;;;;;;5105950;28;19921;-88
2024/01/13 01:16:01;;;;;;;;;;;-2.90;99.90;;;;;;5105909;28;19927;-89
2024/01/13 01:18:27;;;;;;;;;;;-2.90;99.90;;;;;;5098092;28;19920;-89
2024/01/13 01:20:54;;;;;;;;;;;-2.90;99.90;;;;;;5107166;28;20354;-89
2024/01/13 01:23:21;;;;;;;;;;;-2.90;99.90;;;;;;5106798;28;20030;-89
2024/01/13 01:25:48;;;;;;;;;;;-3.00;99.90;;;;;;5106760;28;20124;-89
2024/01/13 01:28:16;;;;;;;;;;;-2.90;99.90;;;;;;5105365;28;19924;-89
2024/01/13 01:30:43;;;;;;;;;;;-3.00;99.90;;;;;;5101190;28;20197;-89
2024/01/13 01:33:10;;;;;;;;;;;-2.90;99.90;;;;;;5104830;28;20121;-89
2024/01/13 01:35:37;;;;;;;;;;;-2.90;99.90;;;;;;5099648;28;20103;-89
2024/01/13 01:38:04;;;;;;;;;;;-2.90;99.90;;;;;;5104256;28;20264;-89
2024/01/13 01:40:31;;;;;;;;;;;-2.80;99.90;;;;;;5105637;28;19920;-91
2024/01/13 01:42:58;;;;;;;;;;;-2.80;99.90;;;;;;5105584;28;19975;-89
2024/01/13 01:45:26;;;;;;;;;;;-2.80;99.90;;;;;;5105618;28;19922;-89
2024/01/13 01:47:53;;;;;;;;;;;-2.80;99.90;;;;;;5105718;28;20281;-89
2024/01/13 01:50:20;;;;;;;;;;;-2.80;99.90;;;;;;5105349;28;19920;-89
2024/01/13 01:52:47;;;;;;;;;;;-2.80;99.90;;;;;;5106009;28;19961;-90
2024/01/13 01:55:14;;;;;;;;;;;-2.80;99.90;;;;;;5097333;28;19927;-89
2024/01/13 01:57:41;;;;;;;;;;;-2.80;99.90;;;;;;5105190;28;19920;-89
2024/01/13 02:00:09;;;;;;;;;;;-2.70;99.90;;;;;;5106551;28;19919;-92
2024/01/13 02:02:37;;;;;;;;;;;-2.70;99.90;;;;;;5108254;28;19926;-90
2024/01/13 02:05:04;;;;;;;;;;;-2.70;99.90;;;;;;5104843;28;19983;-91
2024/01/13 02:07:32;;;;;;;;;;;-2.70;99.90;;;;;;5102392;28;19983;-90
2024/01/13 02:09:59;;;;;;;;;;;-2.70;99.90;;;;;;5104689;28;19958;-89
2024/01/13 02:12:25;;;;;;;;;;;-2.70;99.90;;;;;;5104745;28;20385;-89
2024/01/13 02:14:54;;;;;;;;;;;-2.70;99.90;;;;;;5104496;28;19934;-92
2024/01/13 02:17:20;;;;;;;;;;;-2.80;99.90;;;;;;5105059;28;19920;-89
2024/01/13 02:19:49;;;;;;;;;;;-2.70;99.90;;;;;;5104798;28;19983;-89
2024/01/13 02:22:17;;;;;;;;;;;-2.70;99.90;;;;;;5104857;28;19920;-89
2024/01/13 02:24:43;;;;;;;;;;;-2.70;99.90;;;;;;5100273;28;19954;-89
2024/01/13 02:27:10;;;;;;;;;;;-2.70;99.90;;;;;;5104413;28;19978;-90
2024/01/13 02:29:37;;;;;;;;;;;-2.70;99.90;;;;;;5119185;22;19987;-75
2024/01/13 02:32:04;;;;;;;;;;;-2.10;99.90;;;;;;5123020;28;19991;-75
2024/01/13 02:34:30;;;;;;;;;;;-2.80;99.90;;;;;;5119079;28;19919;-75
2024/01/13 02:36:57;;;;;;;;;;;-2.80;99.90;;;;;;5124257;28;19926;-75
2024/01/13 02:39:25;;;;;;;;;;;-2.80;99.90;;;;;;5119495;28;20284;-75
2024/01/13 02:41:52;;;;;;;;;;;-2.80;99.90;;;;;;5106123;28;20123;-75
2024/01/13 02:44:18;;;;;;;;;;;-2.80;99.90;;;;;;5095178;28;19920;-74
2024/01/13 02:46:45;;;;;;;;;;;-2.80;99.90;;;;;;5104001;28;20003;-75
2024/01/13 02:49:12;;;;;;;;;;;-2.70;99.90;;;;;;5103738;28;19987;-75
2024/01/13 02:51:39;;;;;;;;;;;-2.80;99.90;;;;;;5103885;28;20188;-75
2024/01/13 02:54:05;;;;;;;;;;;-2.80;99.90;;;;;;5103017;28;19963;-75
2024/01/13 02:56:34;;;;;;;;;;;-2.80;99.90;;;;;;5103529;28;20206;-75
2024/01/13 02:59:01;;;;;;;;;;;-2.80;99.90;;;;;;5103568;28;19983;-75
2024/01/13 03:01:28;;;;;;;;;;;-2.70;99.90;;;;;;5103786;28;19952;-75
2024/01/13 03:03:55;;;;;;;;;;;-2.80;99.90;;;;;;5103017;28;19962;-75
2024/01/13 03:06:23;;;;;;;;;;;-2.80;99.90;;;;;;5103166;28;20233;-76
2024/01/13 03:08:49;;;;;;;;;;;-2.80;99.90;;;;;;5103295;28;19935;-75
2024/01/13 03:11:16;;;;;;;;;;;-2.80;99.90;;;;;;5109114;28;19942;-75
2024/01/13 03:13:44;;;;;;;;;;;-2.80;99.90;;;;;;5102774;28;20285;-75
2024/01/13 03:16:11;;;;;;;;;;;-2.80;99.90;;;;;;5105476;28;19927;-75
2024/01/13 03:18:37;;;;;;;;;;;-2.80;99.90;;;;;;5107246;28;19983;-75
2024/01/13 03:21:04;;;;;;;;;;;-2.80;99.90;;;;;;5107583;28;19958;-76
2024/01/13 03:23:31;;;;;;;;;;;-2.70;99.90;;;;;;5107742;28;19995;-76
2024/01/13 03:25:58;;;;;;;;;;;-2.80;99.90;;;;;;5106754;28;20280;-75
2024/01/13 03:28:25;;;;;;;;;;;-2.70;99.90;;;;;;5107259;28;19920;-75
2024/01/13 03:30:53;;;;;;;;;;;-2.80;99.90;;;;;;5114418;28;19967;-75
2024/01/13 03:33:19;;;;;;;;;;;-2.80;99.90;;;;;;5099309;28;19927;-75
2024/01/13 03:35:46;;;;;;;;;;;-2.80;99.90;;;;;;5106911;28;19942;-75
2024/01/13 03:38:13;;;;;;;;;;;-2.80;99.90;;;;;;5106857;28;19963;-75
2024/01/13 03:40:39;;;;;;;;;;;-2.80;99.90;;;;;;5107303;28;19962;-75
2024/01/13 03:43:06;;;;;;;;;;;-2.80;99.90;;;;;;5106954;28;19979;-74
2024/01/13 03:45:32;;;;;;;;;;;-2.80;99.90;;;;;;5108164;28;19920;-75
2024/01/13 03:48:00;;;;;;;;;;;-2.80;99.90;;;;;;5106751;28;20244;-75
2024/01/13 03:50:27;;;;;;;;;;;-2.70;99.90;;;;;;5107026;28;20188;-75
2024/01/13 03:52:54;;;;;;;;;;;-2.70;99.90;;;;;;5106915;28;19927;-75
2024/01/13 03:55:20;;;;;;;;;;;-2.70;99.90;;;;;;5106502;28;19920;-76
2024/01/13 03:57:47;;;;;;;;;;;-2.70;99.90;;;;;;5096252;28;19950;-74
2024/01/13 04:00:14;;;;;;;;;;;-2.70;99.90;;;;;;5100106;28;19920;-75
2024/01/13 04:02:41;;;;;;;;;;;-2.70;99.90;;;;;;5106744;28;19947;-75
2024/01/13 04:05:09;;;;;;;;;;;-2.60;99.90;;;;;;5106217;28;20098;-75
2024/01/13 04:07:36;;;;;;;;;;;-2.60;99.90;;;;;;5106436;28;20224;-75
2024/01/13 04:10:02;;;;;;;;;;;-2.60;99.90;;;;;;5106375;28;19947;-75
2024/01/13 04:12:29;;;;;;;;;;;-2.60;99.90;;;;;;5106467;28;19920;-74
2024/01/13 04:14:56;;;;;;;;;;;-2.60;99.90;;;;;;5105814;28;19920;-75
2024/01/13 04:17:22;;;;;;;;;;;-2.60;99.90;;;;;;5106580;28;19920;-75
2024/01/13 04:19:49;;;;;;;;;;;-2.60;99.90;;;;;;5106564;28;19927;-74
2024/01/13 04:22:17;;;;;;;;;;;-2.60;99.90;;;;;;5106489;28;19955;-75
2024/01/13 04:24:43;;;;;;;;;;;-2.60;99.90;;;;;;5106027;28;19943;-76
2024/01/13 04:27:10;;;;;;;;;;;-2.70;99.90;;;;;;5105017;28;19963;-75
2024/01/13 04:29:36;;;;;;;;;;;-2.70;99.90;;;;;;5105946;28;19987;-75
2024/01/13 04:32:03;;;;;;;;;;;-2.70;99.90;;;;;;5106337;28;19920;-75
2024/01/13 04:34:30;;;;;;;;;;;-2.70;99.90;;;;;;5105710;28;19928;-74
2024/01/13 04:36:56;;;;;;;;;;;-2.70;99.90;;;;;;5106288;28;20190;-75
2024/01/13 04:39:24;;;;;;;;;;;-2.70;99.90;;;;;;5106106;28;19987;-75
2024/01/13 04:41:51;;;;;;;;;;;-2.70;99.90;;;;;;5106248;28;19987;-75
2024/01/13 04:44:18;;;;;;;;;;;-2.70;99.90;;;;;;5097141;28;19981;-75
2024/01/13 04:46:44;;;;;;;;;;;-2.70;99.90;;;;;;5105927;28;19958;-75
2024/01/13 04:49:11;;;;;;;;;;;-2.70;99.90;;;;;;5105591;28;19985;-75
2024/01/13 04:51:38;;;;;;;;;;;-2.70;99.90;;;;;;5105706;28;19964;-74
2024/01/13 04:54:04;;;;;;;;;;;-2.70;99.90;;;;;;5105192;28;19958;-76
2024/01/13 04:56:33;;;;;;;;;;;-2.70;99.90;;;;;;5105896;28;19987;-75
2024/01/13 04:58:59;;;;;;;;;;;-2.80;99.90;;;;;;5105524;28;20289;-75
2024/01/13 05:01:26;;;;;;;;;;;-2.80;99.90;;;;;;5105568;28;19962;-75
2024/01/13 05:03:53;;;;;;;;;;;-2.80;99.90;;;;;;5104788;28;19987;-74
2024/01/13 05:06:19;;;;;;;;;;;-2.80;99.90;;;;;;5106622;28;19920;-75
2024/01/13 05:08:46;;;;;;;;;;;-2.70;99.90;;;;;;5109689;28;19987;-75
2024/01/13 05:11:13;;;;;;;;;;;-2.70;99.90;;;;;;5105514;28;20006;-75
2024/01/13 05:13:41;;;;;;;;;;;-2.70;99.90;;;;;;5104668;28;20209;-75
2024/01/13 05:16:08;;;;;;;;;;;-2.70;99.90;;;;;;5105272;28;19951;-76
2024/01/13 05:18:34;;;;;;;;;;;-2.70;99.90;;;;;;5105227;28;19987;-75
2024/01/13 05:21:01;;;;;;;;;;;-2.70;99.90;;;;;;5105261;28;19929;-75
2024/01/13 05:23:27;;;;;;;;;;;-2.70;99.90;;;;;;5105252;28;19926;-75
2024/01/13 05:25:55;;;;;;;;;;;-2.70;99.90;;;;;;5104510;28;19969;-75
2024/01/13 05:28:21;;;;;;;;;;;-2.70;99.90;;;;;;5105142;28;19920;-75
2024/01/13 05:30:49;;;;;;;;;;;-2.70;99.90;;;;;;5105354;28;20284;-75
2024/01/13 05:33:17;;;;;;;;;;;-2.60;99.90;;;;;;5105029;28;19942;-75
2024/01/13 05:35:43;;;;;;;;;;;-2.60;99.90;;;;;;5104865;28;20157;-76
2024/01/13 05:38:10;;;;;;;;;;;-2.60;99.90;;;;;;5104676;28;19920;-75
2024/01/13 05:40:40;;;;;;;;;;;-2.60;99.90;;;;;;5105241;28;19920;-74
2024/01/13 05:43:07;;;;;;;;;;;-2.60;99.90;;;;;;5105257;28;19959;-75
2024/01/13 05:45:34;;;;;;;;;;;-2.60;99.90;;;;;;5104356;28;19924;-75
2024/01/13 05:48:02;;;;;;;;;;;-2.50;99.90;;;;;;5104572;28;19983;-75
2024/01/13 05:50:28;;;;;;;;;;;-2.60;99.90;;;;;;5104719;28;19947;-75
2024/01/13 05:52:55;;;;;;;;;;;-2.60;99.90;;;;;;5104631;28;19995;-75
2024/01/13 05:55:22;;;;;;;;;;;-2.60;99.90;;;;;;5103585;28;19920;-75
2024/01/13 05:57:48;;;;;;;;;;;-2.60;99.90;;;;;;5104651;28;19954;-75
2024/01/13 06:00:15;;;;;;;;;;;-2.60;99.90;;;;;;5104557;28;20150;-75
2024/01/13 06:02:43;;;;;;;;;;;-2.60;99.90;;;;;;5104683;28;19920;-75
2024/01/13 06:05:11;;;;;;;;;;;-2.60;99.90;;;;;;5103961;28;19920;-76
2024/01/13 06:07:38;;;;;;;;;;;-2.60;99.90;;;;;;5104387;28;20205;-75
2024/01/13 06:10:05;;;;;;;;;;;-2.60;99.90;;;;;;5104364;28;19987;-75
2024/01/13 06:12:32;;;;;;;;;;;-2.60;99.90;;;;;;5107385;28;19924;-75
2024/01/13 06:14:58;;;;;;;;;;;-2.70;99.90;;;;;;5103569;28;19987;-75
2024/01/13 06:17:25;;;;;;;;;;;-2.60;99.90;;;;;;5104420;28;19987;-75
2024/01/13 06:19:51;;;;;;;;;;;-2.70;99.90;;;;;;5103845;28;19920;-75
2024/01/13 06:22:19;;;;;;;;;;;-2.60;99.90;;;;;;5096224;28;19990;-75
2024/01/13 06:24:46;;;;;;;;;;;-2.60;99.90;;;;;;5103748;28;19979;-75
2024/01/13 06:27:13;;;;;;;;;;;-2.60;99.90;;;;;;5104689;28;19951;-75
2024/01/13 06:29:39;;;;;;;;;;;-2.60;99.90;;;;;;5103860;28;20224;-75
2024/01/13 06:32:06;;;;;;;;;;;-2.60;99.90;;;;;;5104045;28;19920;-74
2024/01/13 06:34:32;;;;;;;;;;;-2.60;99.90;;;;;;5103580;28;20170;-75
2024/01/13 06:36:59;;;;;;;;;;;-2.60;99.90;;;;;;5105624;28;19926;-74
2024/01/13 06:39:27;;;;;;;;;;;-2.60;99.90;;;;;;5104261;28;19920;-75
2024/01/13 06:41:53;;;;;;;;;;;-2.60;99.90;;;;;;5104010;28;19952;-75
2024/01/13 06:44:20;;;;;;;;;;;-2.60;99.90;;;;;;5106410;28;19979;-75
2024/01/13 06:46:47;;;;;;;;;;;-2.60;99.90;;;;;;5104079;28;19982;-75
2024/01/13 06:49:13;;;;;;;;;;;-2.70;99.90;;;;;;5103475;28;20253;-76
2024/01/13 06:51:42;;;;;;;;;;;-2.70;99.90;;;;;;5103380;28;19999;-75
2024/01/13 06:54:08;;;;;;;;;;;-2.70;99.90;;;;;;5103322;28;19955;-75
2024/01/13 06:56:37;;;;;;;;;;;-2.70;99.90;;;;;;5103609;28;19920;-75
2024/01/13 06:59:04;;;;;;;;;;;-2.70;99.90;;;;;;5103203;28;19951;-75
2024/01/13 07:01:30;;;;;;;;;;;-2.70;99.90;;;;;;5103881;28;19927;-75
2024/01/13 07:03:57;;;;;;;;;;;-2.70;99.90;;;;;;5102947;28;19987;-75
2024/01/13 07:06:23;;;;;;;;;;;-2.70;99.90;;;;;;5103955;28;19983;-75
2024/01/13 07:08:50;;;;;;;;;;;-2.70;99.90;;;;;;5103326;28;19920;-75
2024/01/13 07:11:17;;;;;;;;;;;-2.60;99.90;;;;;;5103672;28;19988;-75
2024/01/13 07:13:45;;;;;;;;;;;-2.70;99.90;;;;;;5102995;28;19962;-75
2024/01/13 07:16:12;;;;;;;;;;;-2.70;99.90;;;;;;5103354;28;19962;-75
2024/01/13 07:18:39;;;;;;;;;;;-2.70;99.90;;;;;;5108017;28;19928;-75
2024/01/13 07:21:05;;;;;;;;;;;-2.70;99.90;;;;;;5103417;28;19958;-75
2024/01/13 07:23:32;;;;;;;;;;;-2.70;99.90;;;;;;5103211;28;19926;-75
2024/01/13 07:25:59;;;;;;;;;;;-2.70;99.90;;;;;;5103118;28;19920;-75
2024/01/13 07:28:26;;;;;;;;;;;-2.70;99.90;;;;;;5103923;28;19920;-74
2024/01/13 07:30:54;;;;;;;;;;;-2.70;99.90;;;;;;5103302;28;20229;-74
2024/01/13 07:33:26;;;;;;;;;;;-2.80;99.90;;;;;;5105878;28;19979;-74
2024/01/13 07:35:52;;;;;;;;;;;-2.80;99.90;;;;;;5103756;28;19926;-73
2024/01/13 07:38:19;;;;;;;;;;;-2.80;99.90;;;;;;5087989;28;20019;-72
2024/01/13 07:40:46;;;;;;;;;;;-2.80;99.90;;;;;;5087686;28;19943;-75
2024/01/13 07:43:13;;;;;;;;;;;-2.80;99.90;;;;;;5087639;28;19928;-74
2024/01/13 07:45:40;;;;;;;;;;;-2.80;99.90;;;;;;5088209;28;20172;-74
2024/01/13 07:48:08;;;;;;;;;;;-2.80;99.90;;;;;;5089023;28;19987;-75
2024/01/13 07:50:35;;;;;;;;;;;-2.80;99.90;;;;;;5086382;28;19965;-74
2024/01/13 07:53:02;;;;;;;;;;;-2.90;99.90;;;;;;5085957;28;19962;-71
2024/01/13 07:55:29;;;;;;;;;;;-2.90;99.90;;;;;;5093647;28;19971;-75
2024/01/13 07:57:55;;;;;;;;;;;-2.90;99.90;;;;;;5103281;28;20002;-75
2024/01/13 08:00:23;;;;;;;;;;;-2.90;99.90;;;;;;5100736;28;19947;-75
2024/01/13 08:02:50;;;;;;;;;;;-2.80;99.90;;;;;;5103688;28;19924;-75
2024/01/13 08:05:17;;;;;;;;;;;-2.80;99.90;;;;;;5105922;28;19955;-74
2024/01/13 08:07:44;;;;;;;;;;;-2.80;99.90;;;;;;5104672;28;19947;-75
2024/01/13 08:10:11;;;;;;;;;;;-2.80;99.90;;;;;;5104148;28;19960;-75
2024/01/13 08:12:38;;;;;;;;;;;-2.80;99.90;;;;;;5106839;28;19948;-75
2024/01/13 08:15:05;;;;;;;;;;;-2.80;99.90;;;;;;5096845;28;19995;-73
2024/01/13 08:17:31;;;;;;;;;;;-2.80;99.90;;;;;;5090207;28;19935;-73
2024/01/13 08:19:58;;;;;;;;;;;-2.80;99.90;;;;;;5089513;28;20019;-70
2024/01/13 08:22:26;;;;;;;;;;;-2.80;99.90;;;;;;5090409;28;19934;-72
2024/01/13 08:24:53;;;;;;;;;;;-2.90;99.90;;;;;;5089309;28;21045;-71
2024/01/13 08:27:19;;;;;;;;;;;-2.90;99.90;;;;;;5099675;28;19920;-73
2024/01/13 08:29:46;;;;;;;;;;;-3.00;99.90;;;;;;5103625;28;19920;-73
2024/01/13 08:32:12;;;;;;;;;;;-3.00;99.90;;;;;;5104517;28;19970;-73
2024/01/13 08:34:39;;;;;;;;;;;-3.00;99.90;;;;;;5104956;28;19939;-73
2024/01/13 08:37:06;;;;;;;;;;;-3.00;99.90;;;;;;5110686;28;19919;-73
2024/01/13 08:39:35;;;;;;;;;;;-2.90;99.90;;;;;;5122635;28;19920;-73
2024/01/13 08:42:01;;;;;;;;;;;-2.90;99.90;;;;;;5119751;28;19920;-73
2024/01/13 08:44:28;;;;;;;;;;;-2.90;99.90;;;;;;5100570;28;19926;-73
2024/01/13 08:46:55;;;;;;;;;;;-2.90;99.90;;;;;;5088846;28;19999;-71
2024/01/13 08:49:21;;;;;;;;;;;-3.00;99.90;;;;;;5102368;28;19920;-74
2024/01/13 08:51:48;;;;;;;;;;;-3.00;99.90;;;;;;5102005;28;19923;-73
2024/01/13 08:54:15;;;;;;;;;;;-3.00;99.90;;;;;;5103845;28;19987;-73
2024/01/13 08:56:43;;;;;;;;;;;-3.00;99.90;;;;;;5105998;28;20112;-73
2024/01/13 08:59:10;;;;;;;;;;;-3.00;99.90;;;;;;5105725;28;19988;-73
2024/01/13 09:01:36;;;;;;;;;;;-3.10;99.90;;;;;;5105840;28;19920;-73
2024/01/13 09:04:04;;;;;;;;;;;-3.00;99.90;;;;;;5105557;28;19920;-73
2024/01/13 09:06:30;;;;;;;;;;;-3.10;99.90;;;;;;5105560;28;20260;-72
2024/01/13 09:08:57;;;;;;;;;;;-3.10;99.90;;;;;;5105449;28;19924;-73
2024/01/13 09:11:23;;;;;;;;;;;-3.00;99.90;;;;;;5105336;28;19952;-74
2024/01/13 09:13:51;;;;;;;;;;;-3.00;99.90;;;;;;5103802;28;19987;-72
2024/01/13 09:16:18;;;;;;;;;;;-3.00;99.90;;;;;;5096873;28;20261;-72
2024/01/13 09:18:45;;;;;;;;;;;-3.00;99.90;;;;;;5105101;28;19989;-75
2024/01/13 09:21:12;;;;;;;;;;;-3.00;99.90;;;;;;5105095;28;19983;-75
2024/01/13 09:23:39;;;;;;;;;;;-3.00;99.90;;;;;;5104901;28;19982;-74
2024/01/13 09:26:06;;;;;;;;;;;-3.10;99.90;;;;;;5105293;28;19920;-74
2024/01/13 09:28:33;;;;;;;;;;;-3.10;99.90;;;;;;5105095;28;19983;-74
2024/01/13 09:31:01;;;;;;;;;;;-3.10;99.90;;;;;;5100316;28;19932;-72
2024/01/13 09:33:27;;;;;;;;;;;-3.10;99.90;;;;;;5101507;28;19927;-71
2024/01/13 09:35:54;;;;;;;;;;;-3.10;99.90;;;;;;5090485;28;19966;-71
2024/01/13 09:38:21;;;;;;;;;;;-3.10;99.90;;;;;;5101088;28;19991;-74
2024/01/13 09:40:47;;;;;;;;;;;-3.10;99.90;;;;;;5106361;28;19926;-74
2024/01/13 09:43:18;;;;;;;;;;;-3.10;99.90;;;;;;5105006;28;19987;-74
2024/01/13 09:45:45;;;;;;;;;;;-3.10;99.90;;;;;;5102746;28;19996;-73
2024/01/13 09:48:13;;;;;;;;;;;-3.00;99.90;;;;;;5106551;28;19951;-73
2024/01/13 09:50:40;;;;;;;;;;;-3.10;99.90;;;;;;5102659;28;19958;-74
2024/01/13 09:53:08;;;;;;;;;;;-3.00;99.90;;;;;;5103132;28;19987;-74
2024/01/13 09:55:36;;;;;;;;;;;-3.00;99.90;;;;;;5105609;28;20378;-75
2024/01/13 09:58:03;;;;;;;;;;;-3.00;99.90;;;;;;5098083;28;19927;-75
2024/01/13 10:00:31;;;;;;;;;;;-3.00;99.90;;;;;;5103012;28;19958;-74
2024/01/13 10:02:58;;;;;;;;;;;-3.00;99.90;;;;;;5103679;28;19920;-74
2024/01/13 10:05:29;;;;;;;;;;;-2.90;99.90;;;;;;5105119;28;19927;-75
2024/01/13 10:07:56;;;;;;;;;;;-2.90;99.90;;;;;;5104788;28;19920;-73
2024/01/13 10:10:23;;;;;;;;;;;-2.90;99.90;;;;;;5105468;28;19935;-74
2024/01/13 10:12:51;;;;;;;;;;;-2.90;99.90;;;;;;5106344;28;19924;-74
2024/01/13 10:15:18;;;;;;;;;;;-2.90;99.90;;;;;;5097273;28;19985;-74
2024/01/13 10:17:45;;;;;;;;;;;-3.00;99.90;;;;;;5105189;28;19992;-74
2024/01/13 10:20:13;;;;;;;;;;;-3.10;99.90;;;;;;5105631;28;19959;-73
2024/01/13 10:22:44;;;;;;;;;;;-3.10;99.90;;;;;;5106952;28;20117;-73
2024/01/13 10:25:11;;;;;;;;;;;-3.00;99.90;;;;;;5104420;28;19987;-74
2024/01/13 10:27:38;;;;;;;;;;;-3.00;99.90;;;;;;5106514;28;19956;-74
2024/01/13 10:30:06;;;;;;;;;;;-3.00;99.90;;;;;;5106059;28;19920;-74
2024/01/13 10:32:33;;;;;;;;;;;-3.00;99.90;;;;;;5106219;28;19920;-74
2024/01/13 10:34:59;;;;;;;;;;;-3.00;99.90;;;;;;5105171;28;19987;-74
2024/01/13 10:37:26;;;;;;;;;;;-3.00;99.90;;;;;;5107050;28;19970;-74
2024/01/13 10:39:55;;;;;;;;;;;-2.90;99.90;;;;;;5105070;28;19920;-74
2024/01/13 10:42:25;;;;;;;;;;;-2.90;99.90;;;;;;5105765;28;19993;-74
2024/01/13 10:44:56;;;;;;;;;;;-2.90;99.90;;;;;;5106214;28;20087;-71
2024/01/13 10:47:28;;;;;;;;;;;-2.90;99.90;;;;;;5102447;28;20178;-73
2024/01/13 10:49:56;;;;;;;;;;;-2.90;99.90;;;;;;5102818;28;19936;-74
2024/01/13 10:52:26;;;;;;;;;;;-2.90;99.90;;;;;;5100683;28;19947;-73
2024/01/13 10:55:04;;;;;;;;;;;-2.90;99.90;;;;;;5109452;28;19954;-73
2024/01/13 10:57:34;;;;;;;;;;;-2.90;99.90;;;;;;5105796;28;19920;-72
2024/01/13 11:00:01;;;;;;;;;;;-2.90;99.90;;;;;;5101536;28;19951;-73
2024/01/13 11:02:32;;;;;;;;;;;-2.90;99.90;;;;;;5105079;28;19927;-73
2024/01/13 11:04:59;;;;;;;;;;;-2.90;99.90;;;;;;5103161;28;19920;-73
2024/01/13 11:07:26;;;;;;;;;;;-3.00;99.90;;;;;;5102733;28;19963;-73
2024/01/13 11:09:54;;;;;;;;;;;-3.00;99.90;;;;;;5105309;28;19955;-72
2024/01/13 11:12:27;;;;;;;;;;;-3.00;99.90;;;;;;5103945;28;19966;-72
2024/01/13 11:14:58;;;;;;;;;;;-3.00;99.90;;;;;;5104219;28;19958;-72
2024/01/13 11:17:25;;;;;;;;;;;-2.90;99.90;;;;;;5105115;28;19931;-73
2024/01/13 11:19:52;;;;;;;;;;;-2.90;99.90;;;;;;5105825;28;19920;-74
2024/01/13 11:22:36;;;;;;;;;;;-2.90;99.90;;;;;;5110497;28;19988;-74
2024/01/13 11:25:05;;;;;;;;;;;-3.00;99.90;;;;;;5102029;28;19920;-75
2024/01/13 11:27:33;;;;;;;;;;;-3.00;99.90;;;;;;5105338;28;19948;-74
2024/01/13 11:30:00;;;;;;;;;;;-3.00;99.90;;;;;;5098078;28;19970;-74
2024/01/13 11:32:28;;;;;;;;;;;-3.00;99.90;;;;;;5102467;28;19999;-75
2024/01/13 11:38:25;;;;;;;;;;;-3.00;99.90;;;;;;5133436;27;19912;-77
2024/01/13 11:40:56;;;;;;;;;;;-3.00;99.90;;;;;;5102669;28;20213;-73
2024/01/13 11:43:24;;;;;;;;;;;-3.10;99.90;;;;;;5093203;28;19921;-73
2024/01/13 11:45:51;;;;;;;;;;;-3.00;99.90;;;;;;5099197;28;19969;-74
2024/01/13 11:48:36;;;;;;;;;;;-3.10;99.90;;;;;;5102309;28;19924;-74
2024/01/13 11:51:08;;;;;;;;;;;-3.20;99.90;;;;;;5098175;28;19921;-73
2024/01/13 11:53:39;;;;;;;;;;;-3.20;99.90;;;;;;5102265;28;19920;-72
2024/01/13 11:56:06;;;;;;;;;;;-3.20;99.90;;;;;;5109445;28;19987;-74
2024/01/13 11:58:34;;;;;;;;;;;-3.20;99.90;;;;;;5099085;28;19921;-74
2024/01/13 12:01:01;;;;;;;;;;;-3.20;99.90;;;;;;5099429;28;19987;-73
2024/01/13 12:03:27;;;;;;;;;;;-3.20;99.90;;;;;;5103519;28;19987;-75
2024/01/13 12:05:54;;;;;;;;;;;-3.20;99.90;;;;;;5107779;28;19955;-72
2024/01/13 12:08:22;;;;;;;;;;;-3.20;99.90;;;;;;5109579;28;19983;-73
2024/01/13 12:10:51;;;;;;;;;;;-3.20;99.90;;;;;;5110420;28;19976;-74
2024/01/13 12:13:19;;;;;;;;;;;-3.20;99.90;;;;;;5105561;28;19924;-75
2024/01/13 12:15:47;;;;;;;;;;;-3.30;99.90;;;;;;5111797;28;19919;-75
2024/01/13 12:18:21;;;;;;;;;;;-3.30;99.90;;;;;;5108800;28;19932;-72
2024/01/13 12:20:48;;;;;;;;;;;-3.30;99.90;;;;;;5099472;28;19928;-73
2024/01/13 12:23:15;;;;;;;;;;;-3.20;99.90;;;;;;5106902;28;19928;-73
2024/01/13 12:25:42;;;;;;;;;;;-3.20;99.90;;;;;;5097770;28;19951;-75
2024/01/13 12:28:10;;;;;;;;;;;-3.20;99.90;;;;;;5102994;28;19921;-73
2024/01/13 12:30:38;;;;;;;;;;;-3.30;99.90;;;;;;5105907;28;19947;-74
2024/01/13 12:33:05;;;;;;;;;;;-3.20;99.90;;;;;;5094061;28;19980;-72
2024/01/13 12:35:32;;;;;;;;;;;-3.20;99.90;;;;;;5099242;28;19920;-75
2024/01/13 12:38:00;;;;;;;;;;;-3.20;99.90;;;;;;5103339;28;19991;-73
2024/01/13 12:40:28;;;;;;;;;;;-3.30;99.90;;;;;;5102135;28;19952;-74
2024/01/13 12:42:54;;;;;;;;;;;-3.30;99.90;;;;;;5098544;28;19984;-76
2024/01/13 12:45:23;;;;;;;;;;;-3.30;99.90;;;;;;5100118;28;19991;-72
2024/01/13 12:47:51;;;;;;;;;;;-3.30;99.90;;;;;;5100111;28;19958;-73
2024/01/13 12:50:18;;;;;;;;;;;-3.40;99.90;;;;;;5089179;28;19921;-75
2024/01/13 12:52:45;;;;;;;;;;;-3.40;99.90;;;;;;5087199;28;19920;-74
2024/01/13 12:55:12;;;;;;;;;;;-3.40;99.90;;;;;;5085596;28;19983;-73
2024/01/13 12:57:38;;;;;;;;;;;-3.40;99.90;;;;;;5078129;28;19983;-74
2024/01/13 13:00:06;;;;;;;;;;;-3.40;99.90;;;;;;5081002;28;19928;-76
2024/01/13 13:02:34;;;;;;;;;;;-3.40;99.90;;;;;;5085050;28;20011;-75
2024/01/13 13:05:01;;;;;;;;;;;-3.50;99.90;;;;;;5079893;28;19970;-76
2024/01/13 13:07:28;;;;;;;;;;;-3.50;99.90;;;;;;5085469;28;19987;-75
2024/01/13 13:09:55;;;;;;;;;;;-3.60;99.90;;;;;;5094436;28;19927;-75
2024/01/13 13:12:40;;;;;;;;;;;-3.50;99.90;;;;;;5085091;28;19920;-75
2024/01/13 13:15:07;;;;;;;;;;;-3.60;99.90;;;;;;5083273;28;19920;-75
2024/01/13 13:17:43;;;;;;;;;;;-3.50;99.90;;;;;;5087824;28;19951;-76
2024/01/13 13:20:10;;;;;;;;;;;-3.50;99.90;;;;;;5082212;28;19943;-76
2024/01/13 13:22:37;;;;;;;;;;;-3.40;99.90;;;;;;5079060;28;20149;-75
2024/01/13 13:25:05;;;;;;;;;;;-3.40;99.90;;;;;;5087575;28;19920;-76
2024/01/13 13:27:31;;;;;;;;;;;-3.40;99.90;;;;;;5085771;28;19992;-76
2024/01/13 13:29:58;;;;;;;;;;;-3.40;99.90;;;;;;5081612;28;20221;-76
2024/01/13 13:32:25;;;;;;;;;;;-3.40;99.90;;;;;;5084202;28;19978;-76
2024/01/13 13:34:53;;;;;;;;;;;-3.40;99.90;;;;;;5078104;28;19921;-76
2024/01/13 13:37:20;;;;;;;;;;;-3.40;99.90;;;;;;5076667;28;19979;-76
2024/01/13 13:39:46;;;;;;;;;;;-3.40;99.90;;;;;;5081528;28;19921;-75
2024/01/13 13:42:13;;;;;;;;;;;-3.40;99.90;;;;;;5085029;28;19996;-75
2024/01/13 13:44:40;;;;;;;;;;;-3.30;99.90;;;;;;5081224;28;19948;-76
2024/01/13 13:47:07;;;;;;;;;;;-3.30;99.90;;;;;;5082129;28;19920;-76
2024/01/13 13:49:34;;;;;;;;;;;-3.40;99.90;;;;;;5080996;28;19955;-76
2024/01/13 13:52:02;;;;;;;;;;;-3.40;99.90;;;;;;5078702;28;19948;-76
2024/01/13 13:54:29;;;;;;;;;;;-3.40;99.90;;;;;;5081461;28;19921;-76
2024/01/13 13:56:57;;;;;;;;;;;-3.40;99.90;;;;;;5075334;28;19927;-76
2024/01/13 13:59:23;;;;;;;;;;;-3.50;99.90;;;;;;5080777;28;20148;-76
2024/01/13 14:01:49;;;;;;;;;;;-3.40;99.90;;;;;;5075719;28;19925;-76
2024/01/13 14:04:16;;;;;;;;;;;-3.40;99.90;;;;;;5080849;28;19992;-76
2024/01/13 14:06:42;;;;;;;;;;;-3.50;99.90;;;;;;5079684;28;19920;-75
2024/01/13 14:09:10;;;;;;;;;;;-3.50;99.90;;;;;;5081920;28;19966;-75
2024/01/13 14:11:37;;;;;;;;;;;-3.50;99.90;;;;;;5080292;28;20288;-75
2024/01/13 14:14:04;;;;;;;;;;;-3.50;99.90;;;;;;5082394;28;19927;-75
2024/01/13 14:16:31;;;;;;;;;;;-3.40;99.90;;;;;;5081492;28;19920;-75
2024/01/13 14:18:57;;;;;;;;;;;-3.40;99.90;;;;;;5081287;28;19984;-75